This is the latest recevied weather packets stored in our database for station/object K5NWZ. If no packets are shown the sender has not sent any weather packets the latest 10 day(s).
| Time | Temp. | Humidity | Pressure | Rain* | Wind** | Luminosity | Snow |
|---|---|---|---|---|---|---|---|
| 1787843674 | 21.67° C | 62% | 1033.2 hPa | 0 mm | - | 347 W/m² | - |
| 1787843369 | 21.11° C | 64% | 1033.2 hPa | 0 mm | - | 334 W/m² | - |
| 1787843065 | 20.56° C | 66% | 1033 hPa | 0 mm | - | 321 W/m² | - |
| 1787842764 | 20.56° C | 67% | 1033.1 hPa | 0 mm | - | 309 W/m² | - |
| 1787842460 | 20° C | 68% | 1033.2 hPa | 0 mm | - | 295 W/m² | - |
| 1787842155 | 20° C | 70% | 1033.1 hPa | 0 mm | - | 282 W/m² | - |
| 1787841849 | 20° C | 68% | 1033 hPa | 0 mm | - | 269 W/m² | - |
| 1787841546 | 19.44° C | 70% | 1033.1 hPa | 0 mm | - | 257 W/m² | - |
| 1787841244 | 20.56° C | 67% | 1033 hPa | 0 mm | - | 245 W/m² | - |
| 1787840939 | 20° C | 69% | 1033 hPa | 0 mm | - | 233 W/m² | - |
| 1787840634 | 19.44° C | 71% | 1033.1 hPa | 0 mm | - | 221 W/m² | - |
| 1787840330 | 19.44° C | 72% | 1033.2 hPa | 0 mm | - | 209 W/m² | - |
| 1787840025 | 20° C | 69% | 1033.2 hPa | 0 mm | - | 196 W/m² | - |
| 1787839724 | 19.44° C | 71% | 1033.1 hPa | 0 mm | - | 184 W/m² | - |
| 1787839420 | 19.44° C | 72% | 1033.2 hPa | 0 mm | - | 172 W/m² | - |
| 1787839119 | 18.89° C | 74% | 1032.9 hPa | 0 mm | - | 159 W/m² | - |
| 1787838818 | 18.33° C | 76% | 1033.3 hPa | 0 mm | - | 147 W/m² | - |
| 1787838513 | 18.33° C | 76% | 1033.1 hPa | 0 mm | - | 133 W/m² | - |
| 1787838212 | 18.33° C | 77% | 1033 hPa | 0 mm | - | 119 W/m² | - |
| 1787837911 | 17.78° C | 79% | 1033.1 hPa | 0 mm | - | 108 W/m² | - |
| 1787837610 | 17.22° C | 82% | 1032.9 hPa | 0 mm | - | 83 W/m² | - |
| 1787837305 | 17.22° C | 81% | 1032.7 hPa | 0 mm | - | 61 W/m² | - |
| 1787837000 | 16.67° C | 83% | 1032.7 hPa | 0 mm | - | 52 W/m² | - |
| 1787836695 | 16.67° C | 84% | 1032.9 hPa | 0 mm | - | 46 W/m² | - |
| 1787836394 | 15.56° C | 86% | 1032.4 hPa | 0 mm | - | 42 W/m² | - |
* Rain latest hour (hover to see other rain measurements)
** Current wind speed in m/s (hover to see current wind gust speed)